sensor_id;sensor_type;location;lat;lon;timestamp;pressure;altitude;pressure_sealevel;temperature;humidity
5905;BME280;2978;42.012;24.880;2023-02-20T00:01:53;98883.00;;;16.27;42.61
5905;BME280;2978;42.012;24.880;2023-02-20T00:04:19;98885.69;;;16.32;42.80
5905;BME280;2978;42.012;24.880;2023-02-20T00:06:44;98893.91;;;16.37;42.63
5905;BME280;2978;42.012;24.880;2023-02-20T00:09:10;98891.25;;;16.32;42.52
5905;BME280;2978;42.012;24.880;2023-02-20T00:11:35;98894.81;;;16.19;42.72
5905;BME280;2978;42.012;24.880;2023-02-20T00:14:01;98894.28;;;16.30;42.69
5905;BME280;2978;42.012;24.880;2023-02-20T00:16:26;98901.50;;;16.31;42.63
5905;BME280;2978;42.012;24.880;2023-02-20T00:18:52;98901.19;;;16.33;42.47
5905;BME280;2978;42.012;24.880;2023-02-20T00:21:17;98896.78;;;16.32;42.53
5905;BME280;2978;42.012;24.880;2023-02-20T00:23:43;98905.41;;;16.30;42.43
5905;BME280;2978;42.012;24.880;2023-02-20T00:26:10;98915.50;;;16.26;43.01
5905;BME280;2978;42.012;24.880;2023-02-20T00:28:37;98907.06;;;16.18;42.90
5905;BME280;2978;42.012;24.880;2023-02-20T00:31:10;98915.47;;;16.13;43.10
5905;BME280;2978;42.012;24.880;2023-02-20T00:33:35;98921.41;;;16.06;43.21
5905;BME280;2978;42.012;24.880;2023-02-20T00:36:02;98917.69;;;15.97;43.41
5905;BME280;2978;42.012;24.880;2023-02-20T00:38:28;98914.72;;;15.94;43.70
5905;BME280;2978;42.012;24.880;2023-02-20T00:40:53;98924.19;;;15.93;43.59
5905;BME280;2978;42.012;24.880;2023-02-20T00:43:19;98916.38;;;15.95;43.50
5905;BME280;2978;42.012;24.880;2023-02-20T00:45:45;98931.28;;;15.99;43.63
5905;BME280;2978;42.012;24.880;2023-02-20T00:48:10;98909.59;;;15.87;43.53
5905;BME280;2978;42.012;24.880;2023-02-20T00:50:36;98914.59;;;15.85;43.80
5905;BME280;2978;42.012;24.880;2023-02-20T00:53:01;98911.75;;;15.90;43.82
5905;BME280;2978;42.012;24.880;2023-02-20T00:55:27;98909.16;;;15.94;43.36
5905;BME280;2978;42.012;24.880;2023-02-20T00:57:53;98911.34;;;15.97;43.34
5905;BME280;2978;42.012;24.880;2023-02-20T01:00:25;98900.16;;;16.02;43.21
5905;BME280;2978;42.012;24.880;2023-02-20T01:02:51;98894.09;;;16.00;43.10
5905;BME280;2978;42.012;24.880;2023-02-20T01:05:17;98905.81;;;15.97;43.13
5905;BME280;2978;42.012;24.880;2023-02-20T01:07:43;98905.38;;;15.90;43.62
5905;BME280;2978;42.012;24.880;2023-02-20T01:10:10;98898.59;;;15.96;43.09
5905;BME280;2978;42.012;24.880;2023-02-20T01:12:35;98905.09;;;16.05;43.09
5905;BME280;2978;42.012;24.880;2023-02-20T01:15:01;98904.16;;;15.96;43.15
5905;BME280;2978;42.012;24.880;2023-02-20T01:17:26;98905.38;;;15.90;43.11
5905;BME280;2978;42.012;24.880;2023-02-20T01:19:52;98907.03;;;15.91;43.18
5905;BME280;2978;42.012;24.880;2023-02-20T01:22:17;98916.47;;;15.90;43.07
5905;BME280;2978;42.012;24.880;2023-02-20T01:24:43;98907.22;;;15.94;43.14
5905;BME280;2978;42.012;24.880;2023-02-20T01:27:09;98915.34;;;15.91;43.07
5905;BME280;2978;42.012;24.880;2023-02-20T01:29:34;98921.50;;;15.88;43.17
5905;BME280;2978;42.012;24.880;2023-02-20T01:31:59;98918.84;;;15.83;43.20
5905;BME280;2978;42.012;24.880;2023-02-20T01:34:25;98914.19;;;15.78;43.44
5905;BME280;2978;42.012;24.880;2023-02-20T01:36:53;98924.75;;;15.76;43.66
5905;BME280;2978;42.012;24.880;2023-02-20T01:39:21;98917.25;;;15.76;43.47
5905;BME280;2978;42.012;24.880;2023-02-20T01:41:50;98925.06;;;15.74;43.58
5905;BME280;2978;42.012;24.880;2023-02-20T01:44:22;98933.91;;;15.76;43.75
5905;BME280;2978;42.012;24.880;2023-02-20T01:46:51;98919.69;;;15.64;43.90
5905;BME280;2978;42.012;24.880;2023-02-20T01:52:30;98924.19;;;15.60;43.83
5905;BME280;2978;42.012;24.880;2023-02-20T01:55:01;98920.19;;;15.53;44.26
5905;BME280;2978;42.012;24.880;2023-02-20T01:57:29;98921.09;;;15.48;44.66
5905;BME280;2978;42.012;24.880;2023-02-20T02:00:00;98926.03;;;15.51;44.52
5905;BME280;2978;42.012;24.880;2023-02-20T02:02:30;98929.53;;;15.57;44.53
5905;BME280;2978;42.012;24.880;2023-02-20T02:04:57;98928.72;;;15.56;44.47
5905;BME280;2978;42.012;24.880;2023-02-20T02:07:23;98930.44;;;15.52;44.60
5905;BME280;2978;42.012;24.880;2023-02-20T02:09:55;98931.28;;;15.53;44.67
5905;BME280;2978;42.012;24.880;2023-02-20T02:12:23;98933.84;;;15.49;44.73
5905;BME280;2978;42.012;24.880;2023-02-20T02:14:49;98926.41;;;15.45;44.97
5905;BME280;2978;42.012;24.880;2023-02-20T02:25:58;98954.88;;;15.32;45.44
5905;BME280;2978;42.012;24.880;2023-02-20T02:42:15;98972.81;;;14.79;46.98
5905;BME280;2978;42.012;24.880;2023-02-20T02:47:28;98979.25;;;14.74;47.05
5905;BME280;2978;42.012;24.880;2023-02-20T02:50:02;98977.00;;;14.76;47.04
5905;BME280;2978;42.012;24.880;2023-02-20T02:52:29;98979.31;;;14.69;47.27
5905;BME280;2978;42.012;24.880;2023-02-20T02:55:15;98969.53;;;14.53;47.60
5905;BME280;2978;42.012;24.880;2023-02-20T02:57:41;98990.50;;;14.59;47.60
5905;BME280;2978;42.012;24.880;2023-02-20T03:00:08;98982.38;;;14.68;47.52
5905;BME280;2978;42.012;24.880;2023-02-20T03:02:43;98989.91;;;14.62;47.46
5905;BME280;2978;42.012;24.880;2023-02-20T03:05:14;98990.09;;;14.47;47.83
5905;BME280;2978;42.012;24.880;2023-02-20T03:07:44;98997.56;;;14.46;48.10
5905;BME280;2978;42.012;24.880;2023-02-20T03:10:13;99011.41;;;14.46;47.99
5905;BME280;2978;42.012;24.880;2023-02-20T03:12:48;99003.34;;;14.50;48.11
5905;BME280;2978;42.012;24.880;2023-02-20T03:15:26;99008.22;;;14.58;47.89
5905;BME280;2978;42.012;24.880;2023-02-20T03:20:56;99019.53;;;14.38;48.42
5905;BME280;2978;42.012;24.880;2023-02-20T03:23:26;99010.22;;;14.29;48.51
5905;BME280;2978;42.012;24.880;2023-02-20T03:26:04;99011.03;;;14.24;48.49
5905;BME280;2978;42.012;24.880;2023-02-20T03:28:40;99000.09;;;14.14;48.25
5905;BME280;2978;42.012;24.880;2023-02-20T03:33:39;98993.66;;;14.24;48.28
5905;BME280;2978;42.012;24.880;2023-02-20T03:36:31;99009.13;;;14.25;48.34
5905;BME280;2978;42.012;24.880;2023-02-20T03:39:20;98998.63;;;14.27;48.16
5905;BME280;2978;42.012;24.880;2023-02-20T03:42:06;99008.28;;;14.29;48.35
5905;BME280;2978;42.012;24.880;2023-02-20T03:44:53;98991.75;;;14.19;48.76
5905;BME280;2978;42.012;24.880;2023-02-20T03:47:21;99003.22;;;14.08;49.12
5905;BME280;2978;42.012;24.880;2023-02-20T03:49:49;99015.41;;;14.07;49.45
5905;BME280;2978;42.012;24.880;2023-02-20T03:52:16;99021.19;;;14.10;49.53
5905;BME280;2978;42.012;24.880;2023-02-20T03:54:42;99037.41;;;14.17;49.27
5905;BME280;2978;42.012;24.880;2023-02-20T03:57:14;99010.13;;;14.10;49.01
5905;BME280;2978;42.012;24.880;2023-02-20T03:59:47;99036.44;;;14.03;49.37
5905;BME280;2978;42.012;24.880;2023-02-20T04:02:37;99050.22;;;14.08;49.29
5905;BME280;2978;42.012;24.880;2023-02-20T04:05:07;99043.91;;;14.02;49.15
5905;BME280;2978;42.012;24.880;2023-02-20T04:07:57;99044.16;;;14.06;48.86
5905;BME280;2978;42.012;24.880;2023-02-20T04:10:40;99050.25;;;14.03;48.97
5905;BME280;2978;42.012;24.880;2023-02-20T04:13:07;99047.25;;;13.99;48.98
5905;BME280;2978;42.012;24.880;2023-02-20T04:15:34;99038.66;;;14.01;49.15
5905;BME280;2978;42.012;24.880;2023-02-20T04:18:08;99053.63;;;14.00;49.00
5905;BME280;2978;42.012;24.880;2023-02-20T04:20:35;99045.34;;;13.95;49.03
5905;BME280;2978;42.012;24.880;2023-02-20T04:23:08;99052.25;;;13.97;49.21
5905;BME280;2978;42.012;24.880;2023-02-20T04:25:41;99050.31;;;13.98;49.07
5905;BME280;2978;42.012;24.880;2023-02-20T04:28:07;99051.69;;;13.95;49.46
5905;BME280;2978;42.012;24.880;2023-02-20T04:30:33;99065.88;;;13.89;49.27
5905;BME280;2978;42.012;24.880;2023-02-20T04:32:58;99054.31;;;13.82;49.50
5905;BME280;2978;42.012;24.880;2023-02-20T04:35:24;99059.06;;;13.76;49.12
5905;BME280;2978;42.012;24.880;2023-02-20T04:37:50;99034.72;;;13.78;49.44
5905;BME280;2978;42.012;24.880;2023-02-20T04:40:18;99034.97;;;13.82;49.15
5905;BME280;2978;42.012;24.880;2023-02-20T04:42:44;99014.00;;;13.76;48.87
5905;BME280;2978;42.012;24.880;2023-02-20T04:45:09;99029.19;;;13.78;48.41
5905;BME280;2978;42.012;24.880;2023-02-20T04:47:35;99009.34;;;13.71;48.32
5905;BME280;2978;42.012;24.880;2023-02-20T04:50:01;99009.06;;;13.73;48.43
5905;BME280;2978;42.012;24.880;2023-02-20T04:52:26;99028.06;;;13.79;48.56
5905;BME280;2978;42.012;24.880;2023-02-20T04:54:52;99026.69;;;13.82;48.56
5905;BME280;2978;42.012;24.880;2023-02-20T04:57:18;99021.19;;;13.77;48.30
5905;BME280;2978;42.012;24.880;2023-02-20T04:59:43;99033.88;;;13.78;48.27
5905;BME280;2978;42.012;24.880;2023-02-20T05:02:09;99043.25;;;13.82;48.38
5905;BME280;2978;42.012;24.880;2023-02-20T05:04:34;99044.94;;;13.78;47.67
5905;BME280;2978;42.012;24.880;2023-02-20T05:07:00;99068.44;;;13.80;47.80
5905;BME280;2978;42.012;24.880;2023-02-20T05:09:26;99057.41;;;13.75;47.88
5905;BME280;2978;42.012;24.880;2023-02-20T05:11:52;99067.06;;;13.78;48.13
5905;BME280;2978;42.012;24.880;2023-02-20T05:14:19;99043.34;;;13.72;48.13
5905;BME280;2978;42.012;24.880;2023-02-20T05:16:45;99057.22;;;13.62;48.63
5905;BME280;2978;42.012;24.880;2023-02-20T05:19:11;99052.28;;;13.58;48.36
5905;BME280;2978;42.012;24.880;2023-02-20T05:21:37;99058.50;;;13.74;47.53
5905;BME280;2978;42.012;24.880;2023-02-20T05:24:23;99064.91;;;13.70;47.44
5905;BME280;2978;42.012;24.880;2023-02-20T05:26:49;99071.31;;;13.60;47.90
5905;BME280;2978;42.012;24.880;2023-02-20T05:29:14;99074.97;;;13.55;47.75
5905;BME280;2978;42.012;24.880;2023-02-20T05:34:07;99095.25;;;13.75;47.09
5905;BME280;2978;42.012;24.880;2023-02-20T05:36:33;99079.53;;;13.75;46.65
5905;BME280;2978;42.012;24.880;2023-02-20T05:38:59;99105.81;;;13.68;46.53
5905;BME280;2978;42.012;24.880;2023-02-20T05:41:24;99107.50;;;13.64;47.10
5905;BME280;2978;42.012;24.880;2023-02-20T05:43:50;99118.50;;;13.69;47.01
5905;BME280;2978;42.012;24.880;2023-02-20T05:46:16;99126.53;;;13.70;46.99
5905;BME280;2978;42.012;24.880;2023-02-20T05:48:42;99118.25;;;13.65;46.53
5905;BME280;2978;42.012;24.880;2023-02-20T05:51:07;99126.78;;;13.69;46.58
5905;BME280;2978;42.012;24.880;2023-02-20T05:53:33;99117.41;;;13.70;45.85
5905;BME280;2978;42.012;24.880;2023-02-20T05:55:58;99123.19;;;13.73;46.44
5905;BME280;2978;42.012;24.880;2023-02-20T05:58:24;99145.59;;;13.72;45.87
5905;BME280;2978;42.012;24.880;2023-02-20T06:03:25;99156.56;;;13.82;46.34
5905;BME280;2978;42.012;24.880;2023-02-20T06:05:51;99167.03;;;13.85;45.65
5905;BME280;2978;42.012;24.880;2023-02-20T06:08:16;99172.03;;;13.88;45.47
5905;BME280;2978;42.012;24.880;2023-02-20T06:10:41;99165.38;;;13.89;45.57
5905;BME280;2978;42.012;24.880;2023-02-20T06:13:07;99152.09;;;13.91;45.42
5905;BME280;2978;42.012;24.880;2023-02-20T06:15:32;99170.28;;;13.97;44.85
5905;BME280;2978;42.012;24.880;2023-02-20T06:17:57;99174.66;;;14.03;44.25
5905;BME280;2978;42.012;24.880;2023-02-20T06:20:23;99171.31;;;14.06;43.84
5905;BME280;2978;42.012;24.880;2023-02-20T06:22:48;99181.53;;;14.10;43.70
5905;BME280;2978;42.012;24.880;2023-02-20T06:25:14;99176.22;;;14.19;43.20
5905;BME280;2978;42.012;24.880;2023-02-20T06:27:40;99180.63;;;14.20;43.22
5905;BME280;2978;42.012;24.880;2023-02-20T06:30:06;99183.09;;;14.21;43.05
5905;BME280;2978;42.012;24.880;2023-02-20T06:32:31;99175.09;;;14.20;43.29
5905;BME280;2978;42.012;24.880;2023-02-20T06:34:56;99166.25;;;14.18;43.21
5905;BME280;2978;42.012;24.880;2023-02-20T06:37:22;99174.50;;;14.23;42.68
5905;BME280;2978;42.012;24.880;2023-02-20T06:39:47;99175.34;;;14.23;42.89
5905;BME280;2978;42.012;24.880;2023-02-20T06:42:14;99166.75;;;14.25;42.86
5905;BME280;2978;42.012;24.880;2023-02-20T06:44:39;99163.72;;;14.26;42.16
5905;BME280;2978;42.012;24.880;2023-02-20T06:47:05;99183.03;;;14.36;41.82
5905;BME280;2978;42.012;24.880;2023-02-20T06:49:34;99169.44;;;14.40;41.51
5905;BME280;2978;42.012;24.880;2023-02-20T06:52:00;99161.66;;;14.42;41.56
5905;BME280;2978;42.012;24.880;2023-02-20T06:54:25;99166.78;;;14.58;41.12
5905;BME280;2978;42.012;24.880;2023-02-20T06:56:51;99174.13;;;14.68;40.75
5905;BME280;2978;42.012;24.880;2023-02-20T06:59:17;99171.59;;;14.72;40.59
5905;BME280;2978;42.012;24.880;2023-02-20T07:01:42;99178.50;;;14.74;40.69
5905;BME280;2978;42.012;24.880;2023-02-20T07:04:19;99168.56;;;14.73;40.54
5905;BME280;2978;42.012;24.880;2023-02-20T07:06:45;99169.63;;;14.77;40.37
5905;BME280;2978;42.012;24.880;2023-02-20T07:09:15;99168.22;;;14.80;40.13
5905;BME280;2978;42.012;24.880;2023-02-20T07:11:45;99172.81;;;14.89;40.04
5905;BME280;2978;42.012;24.880;2023-02-20T07:14:11;99162.41;;;15.05;39.74
5905;BME280;2978;42.012;24.880;2023-02-20T07:16:37;99169.25;;;15.12;39.18
5905;BME280;2978;42.012;24.880;2023-02-20T07:19:02;99178.63;;;15.16;39.03
5905;BME280;2978;42.012;24.880;2023-02-20T07:21:28;99160.88;;;15.17;39.12
5905;BME280;2978;42.012;24.880;2023-02-20T07:23:59;99171.41;;;15.15;39.36
5905;BME280;2978;42.012;24.880;2023-02-20T07:26:27;99161.06;;;15.02;38.99
5905;BME280;2978;42.012;24.880;2023-02-20T07:28:54;99163.59;;;14.99;39.16
5905;BME280;2978;42.012;24.880;2023-02-20T07:31:19;99144.44;;;15.02;39.23
5905;BME280;2978;42.012;24.880;2023-02-20T07:33:45;99155.41;;;15.12;39.34
5905;BME280;2978;42.012;24.880;2023-02-20T07:36:12;99143.41;;;15.17;38.57
5905;BME280;2978;42.012;24.880;2023-02-20T07:38:38;99140.41;;;15.13;38.36
5905;BME280;2978;42.012;24.880;2023-02-20T07:41:10;99164.72;;;15.21;39.05
5905;BME280;2978;42.012;24.880;2023-02-20T07:43:41;99160.25;;;15.25;38.59
5905;BME280;2978;42.012;24.880;2023-02-20T07:46:06;99152.41;;;15.32;38.71
5905;BME280;2978;42.012;24.880;2023-02-20T07:48:32;99179.63;;;15.25;38.58
5905;BME280;2978;42.012;24.880;2023-02-20T07:50:58;99163.94;;;15.16;38.74
5905;BME280;2978;42.012;24.880;2023-02-20T07:53:24;99174.31;;;15.05;38.92
5905;BME280;2978;42.012;24.880;2023-02-20T07:55:58;99180.09;;;15.09;39.29
5905;BME280;2978;42.012;24.880;2023-02-20T07:58:24;99185.19;;;15.20;39.27
5905;BME280;2978;42.012;24.880;2023-02-20T08:00:49;99187.34;;;15.28;39.14
5905;BME280;2978;42.012;24.880;2023-02-20T08:03:21;99170.59;;;15.38;39.54
5905;BME280;2978;42.012;24.880;2023-02-20T08:05:47;99173.78;;;15.50;39.18
5905;BME280;2978;42.012;24.880;2023-02-20T08:08:12;99160.09;;;15.59;38.98
5905;BME280;2978;42.012;24.880;2023-02-20T08:10:41;99187.91;;;15.72;37.84
5905;BME280;2978;42.012;24.880;2023-02-20T08:13:06;99166.53;;;15.73;37.73
5905;BME280;2978;42.012;24.880;2023-02-20T08:15:37;99174.56;;;15.74;37.78
5905;BME280;2978;42.012;24.880;2023-02-20T08:18:03;99162.91;;;15.77;37.86
5905;BME280;2978;42.012;24.880;2023-02-20T08:20:29;99160.25;;;15.67;37.90
5905;BME280;2978;42.012;24.880;2023-02-20T08:22:54;99172.69;;;15.70;38.36
5905;BME280;2978;42.012;24.880;2023-02-20T08:25:20;99169.25;;;15.78;38.28
5905;BME280;2978;42.012;24.880;2023-02-20T08:27:48;99174.38;;;15.90;37.87
5905;BME280;2978;42.012;24.880;2023-02-20T08:30:24;99181.63;;;15.86;38.30
5905;BME280;2978;42.012;24.880;2023-02-20T08:32:51;99169.19;;;16.02;37.90
5905;BME280;2978;42.012;24.880;2023-02-20T08:35:16;99181.75;;;16.13;36.53
5905;BME280;2978;42.012;24.880;2023-02-20T08:37:42;99176.81;;;16.10;35.38
5905;BME280;2978;42.012;24.880;2023-02-20T08:40:08;99171.44;;;16.00;34.32
5905;BME280;2978;42.012;24.880;2023-02-20T08:42:34;99182.06;;;15.93;35.18
5905;BME280;2978;42.012;24.880;2023-02-20T08:45:01;99175.47;;;15.89;35.42
5905;BME280;2978;42.012;24.880;2023-02-20T08:47:27;99180.06;;;15.98;34.86
5905;BME280;2978;42.012;24.880;2023-02-20T08:49:52;99181.53;;;15.91;33.70
5905;BME280;2978;42.012;24.880;2023-02-20T08:52:21;99171.28;;;15.91;33.35
5905;BME280;2978;42.012;24.880;2023-02-20T08:54:47;99203.72;;;15.91;32.82
5905;BME280;2978;42.012;24.880;2023-02-20T08:57:16;99182.69;;;15.90;32.75
5905;BME280;2978;42.012;24.880;2023-02-20T08:59:43;99169.03;;;15.93;33.52
5905;BME280;2978;42.012;24.880;2023-02-20T09:02:17;99188.91;;;16.00;32.15
5905;BME280;2978;42.012;24.880;2023-02-20T09:04:46;99201.88;;;16.05;30.73
5905;BME280;2978;42.012;24.880;2023-02-20T09:07:13;99181.53;;;16.09;31.60
5905;BME280;2978;42.012;24.880;2023-02-20T09:09:39;99180.47;;;16.24;32.36
5905;BME280;2978;42.012;24.880;2023-02-20T09:12:08;99183.78;;;16.26;32.78
5905;BME280;2978;42.012;24.880;2023-02-20T09:14:37;99199.16;;;16.37;33.00
5905;BME280;2978;42.012;24.880;2023-02-20T09:17:03;99183.09;;;16.34;31.93
5905;BME280;2978;42.012;24.880;2023-02-20T09:19:29;99179.66;;;16.23;31.07
5905;BME280;2978;42.012;24.880;2023-02-20T09:21:55;99176.44;;;16.35;30.72
5905;BME280;2978;42.012;24.880;2023-02-20T09:24:21;99195.41;;;16.28;29.89
5905;BME280;2978;42.012;24.880;2023-02-20T09:26:46;99177.66;;;16.10;29.06
5905;BME280;2978;42.012;24.880;2023-02-20T09:29:12;99187.31;;;16.13;29.44
5905;BME280;2978;42.012;24.880;2023-02-20T09:31:37;99191.59;;;16.24;30.57
5905;BME280;2978;42.012;24.880;2023-02-20T09:34:03;99205.81;;;16.36;30.61
5905;BME280;2978;42.012;24.880;2023-02-20T09:36:28;99209.88;;;16.43;27.77
5905;BME280;2978;42.012;24.880;2023-02-20T09:38:54;99187.44;;;16.40;28.79
5905;BME280;2978;42.012;24.880;2023-02-20T09:44:14;99193.00;;;16.40;28.54
5905;BME280;2978;42.012;24.880;2023-02-20T09:46:44;99204.84;;;16.45;28.89
5905;BME280;2978;42.012;24.880;2023-02-20T09:49:13;99209.88;;;16.43;28.91
5905;BME280;2978;42.012;24.880;2023-02-20T09:51:43;99179.19;;;16.35;28.66
5905;BME280;2978;42.012;24.880;2023-02-20T09:54:15;99203.13;;;16.49;27.93
5905;BME280;2978;42.012;24.880;2023-02-20T09:56:45;99194.00;;;16.49;26.38
5905;BME280;2978;42.012;24.880;2023-02-20T09:59:36;99202.31;;;16.49;26.86
5905;BME280;2978;42.012;24.880;2023-02-20T10:04:52;99181.56;;;16.60;24.79
5905;BME280;2978;42.012;24.880;2023-02-20T10:07:32;99171.50;;;16.64;23.80
5905;BME280;2978;42.012;24.880;2023-02-20T10:09:59;99182.19;;;16.57;24.04
5905;BME280;2978;42.012;24.880;2023-02-20T10:18:32;99183.03;;;16.57;23.42
5905;BME280;2978;42.012;24.880;2023-02-20T10:21:05;99173.47;;;16.63;22.31
5905;BME280;2978;42.012;24.880;2023-02-20T10:26:00;99195.53;;;16.55;22.50
5905;BME280;2978;42.012;24.880;2023-02-20T10:28:28;99210.25;;;16.55;22.86
5905;BME280;2978;42.012;24.880;2023-02-20T10:38:47;99198.31;;;16.87;22.14
5905;BME280;2978;42.012;24.880;2023-02-20T10:43:48;99193.28;;;16.89;20.58
5905;BME280;2978;42.012;24.880;2023-02-20T10:46:37;99190.09;;;16.96;21.09
5905;BME280;2978;42.012;24.880;2023-02-20T10:49:10;99196.50;;;16.96;20.57
5905;BME280;2978;42.012;24.880;2023-02-20T10:51:42;99182.19;;;16.89;20.70
5905;BME280;2978;42.012;24.880;2023-02-20T10:54:22;99186.56;;;16.76;20.81
5905;BME280;2978;42.012;24.880;2023-02-20T10:56:58;99192.13;;;16.76;21.12
5905;BME280;2978;42.012;24.880;2023-02-20T10:59:34;99194.72;;;16.86;21.37
5905;BME280;2978;42.012;24.880;2023-02-20T11:02:04;99206.16;;;16.99;21.62
5905;BME280;2978;42.012;24.880;2023-02-20T11:04:36;99188.06;;;17.01;20.93
5905;BME280;2978;42.012;24.880;2023-02-20T11:07:11;99190.94;;;16.96;20.84
5905;BME280;2978;42.012;24.880;2023-02-20T11:09:40;99189.78;;;16.97;21.19
5905;BME280;2978;42.012;24.880;2023-02-20T11:12:06;99188.25;;;16.91;20.89
5905;BME280;2978;42.012;24.880;2023-02-20T11:14:40;99190.50;;;16.89;20.52
5905;BME280;2978;42.012;24.880;2023-02-20T11:17:10;99180.41;;;16.93;20.95
5905;BME280;2978;42.012;24.880;2023-02-20T11:19:41;99184.94;;;16.89;20.85
5905;BME280;2978;42.012;24.880;2023-02-20T11:22:07;99161.91;;;17.02;20.74
5905;BME280;2978;42.012;24.880;2023-02-20T11:24:35;99183.34;;;17.15;20.37
5905;BME280;2978;42.012;24.880;2023-02-20T11:27:06;99166.47;;;17.25;20.33
5905;BME280;2978;42.012;24.880;2023-02-20T11:29:46;99170.66;;;17.09;20.33
5905;BME280;2978;42.012;24.880;2023-02-20T11:32:21;99148.53;;;17.04;20.60
5905;BME280;2978;42.012;24.880;2023-02-20T11:34:47;99147.81;;;17.12;20.31
5905;BME280;2978;42.012;24.880;2023-02-20T11:37:13;99155.75;;;17.19;20.74
5905;BME280;2978;42.012;24.880;2023-02-20T11:39:45;99148.75;;;17.21;20.88
5905;BME280;2978;42.012;24.880;2023-02-20T11:42:13;99148.75;;;17.21;20.08
5905;BME280;2978;42.012;24.880;2023-02-20T11:44:40;99149.38;;;17.18;20.05
5905;BME280;2978;42.012;24.880;2023-02-20T11:47:26;99155.34;;;17.25;20.66
5905;BME280;2978;42.012;24.880;2023-02-20T11:50:13;99158.94;;;17.39;20.42
5905;BME280;2978;42.012;24.880;2023-02-20T11:55:23;99159.91;;;17.48;20.39
5905;BME280;2978;42.012;24.880;2023-02-20T11:57:49;99183.78;;;17.49;20.60
5905;BME280;2978;42.012;24.880;2023-02-20T12:00:24;99173.47;;;17.36;20.74
5905;BME280;2978;42.012;24.880;2023-02-20T12:05:43;99143.59;;;17.42;20.59
5905;BME280;2978;42.012;24.880;2023-02-20T12:11:09;99168.94;;;17.27;20.88
5905;BME280;2978;42.012;24.880;2023-02-20T12:13:48;99160.69;;;17.35;20.85
5905;BME280;2978;42.012;24.880;2023-02-20T12:27:43;99181.94;;;17.58;20.61
5905;BME280;2978;42.012;24.880;2023-02-20T12:30:40;99196.34;;;17.60;21.07
5905;BME280;2978;42.012;24.880;2023-02-20T12:47:29;99165.25;;;17.58;21.66
5905;BME280;2978;42.012;24.880;2023-02-20T12:55:40;99159.78;;;17.67;21.70
5905;BME280;2978;42.012;24.880;2023-02-20T13:01:04;99159.38;;;17.60;21.68
5905;BME280;2978;42.012;24.880;2023-02-20T13:06:43;99169.06;;;17.62;21.51
5905;BME280;2978;42.012;24.880;2023-02-20T13:09:15;99150.50;;;17.58;21.58
5905;BME280;2978;42.012;24.880;2023-02-20T13:11:45;99167.38;;;17.61;21.77
5905;BME280;2978;42.012;24.880;2023-02-20T13:19:29;99167.50;;;17.56;22.03
5905;BME280;2978;42.012;24.880;2023-02-20T13:21:59;99171.84;;;17.62;22.30
5905;BME280;2978;42.012;24.880;2023-02-20T13:24:30;99175.09;;;17.64;22.03
5905;BME280;2978;42.012;24.880;2023-02-20T13:27:00;99171.00;;;17.62;22.29
5905;BME280;2978;42.012;24.880;2023-02-20T13:29:38;99174.22;;;17.55;22.43
5905;BME280;2978;42.012;24.880;2023-02-20T13:32:23;99174.09;;;17.60;22.73
5905;BME280;2978;42.012;24.880;2023-02-20T13:34:49;99166.88;;;17.59;22.16
5905;BME280;2978;42.012;24.880;2023-02-20T13:45:46;99181.06;;;17.44;22.37
5905;BME280;2978;42.012;24.880;2023-02-20T14:38:10;99198.66;;;17.26;22.75
5905;BME280;2978;42.012;24.880;2023-02-20T14:40:42;99207.41;;;17.33;22.76
5905;BME280;2978;42.012;24.880;2023-02-20T14:43:17;99207.63;;;17.37;22.79
5905;BME280;2978;42.012;24.880;2023-02-20T14:45:45;99199.28;;;17.37;22.60
5905;BME280;2978;42.012;24.880;2023-02-20T14:48:25;99203.94;;;17.41;22.57
5905;BME280;2978;42.012;24.880;2023-02-20T14:51:12;99196.72;;;17.27;23.01
5905;BME280;2978;42.012;24.880;2023-02-20T14:53:38;99209.09;;;17.21;22.96
5905;BME280;2978;42.012;24.880;2023-02-20T14:56:22;99200.22;;;17.19;23.18
5905;BME280;2978;42.012;24.880;2023-02-20T14:58:48;99199.09;;;17.20;23.24
5905;BME280;2978;42.012;24.880;2023-02-20T15:01:37;99206.78;;;17.23;23.62
5905;BME280;2978;42.012;24.880;2023-02-20T15:04:11;99204.53;;;17.11;23.66
5905;BME280;2978;42.012;24.880;2023-02-20T15:06:39;99206.38;;;17.02;24.20
5905;BME280;2978;42.012;24.880;2023-02-20T15:09:06;99214.88;;;16.92;23.97
5905;BME280;2978;42.012;24.880;2023-02-20T15:11:32;99206.97;;;16.85;24.41
5905;BME280;2978;42.012;24.880;2023-02-20T15:13:58;99213.41;;;16.81;24.67
5905;BME280;2978;42.012;24.880;2023-02-20T15:16:30;99225.13;;;16.78;24.79
5905;BME280;2978;42.012;24.880;2023-02-20T15:18:56;99229.72;;;16.69;24.99
5905;BME280;2978;42.012;24.880;2023-02-20T15:21:36;99227.44;;;16.57;25.41
5905;BME280;2978;42.012;24.880;2023-02-20T15:26:48;99242.28;;;16.48;25.58
5905;BME280;2978;42.012;24.880;2023-02-20T15:31:43;99240.69;;;16.42;25.93
5905;BME280;2978;42.012;24.880;2023-02-20T15:34:17;99237.78;;;16.33;25.96
5905;BME280;2978;42.012;24.880;2023-02-20T15:36:42;99236.94;;;16.33;26.02
5905;BME280;2978;42.012;24.880;2023-02-20T15:39:10;99225.03;;;16.32;25.93
5905;BME280;2978;42.012;24.880;2023-02-20T15:41:36;99231.41;;;16.14;25.84
5905;BME280;2978;42.012;24.880;2023-02-20T15:44:01;99251.63;;;16.15;26.15
5905;BME280;2978;42.012;24.880;2023-02-20T15:46:27;99249.84;;;16.05;26.51
5905;BME280;2978;42.012;24.880;2023-02-20T15:48:53;99265.13;;;16.03;26.69
5905;BME280;2978;42.012;24.880;2023-02-20T15:51:20;99260.19;;;16.00;27.00
5905;BME280;2978;42.012;24.880;2023-02-20T15:53:47;99271.03;;;15.96;26.85
5905;BME280;2978;42.012;24.880;2023-02-20T15:56:13;99281.31;;;15.96;27.09
5905;BME280;2978;42.012;24.880;2023-02-20T15:58:40;99275.38;;;15.84;27.48
5905;BME280;2978;42.012;24.880;2023-02-20T16:01:09;99274.28;;;15.79;27.32
5905;BME280;2978;42.012;24.880;2023-02-20T16:03:34;99271.09;;;15.72;27.88
5905;BME280;2978;42.012;24.880;2023-02-20T16:06:00;99268.34;;;15.67;28.10
5905;BME280;2978;42.012;24.880;2023-02-20T16:08:26;99270.03;;;15.68;28.12
5905;BME280;2978;42.012;24.880;2023-02-20T16:10:52;99275.09;;;15.61;28.45
5905;BME280;2978;42.012;24.880;2023-02-20T16:13:39;99286.19;;;15.61;28.56
5905;BME280;2978;42.012;24.880;2023-02-20T16:16:19;99289.59;;;15.53;28.79
5905;BME280;2978;42.012;24.880;2023-02-20T16:18:45;99295.25;;;15.43;29.06